createdAt,value
2023-05-22T00:00:14.274Z,31.60
2023-05-22T00:02:43.855Z,32.80
2023-05-22T00:05:12.980Z,31.30
2023-05-22T00:07:41.923Z,30.77
2023-05-22T00:10:10.917Z,31.97
2023-05-22T00:12:39.002Z,30.47
2023-05-22T00:15:09.682Z,31.30
2023-05-22T00:17:37.780Z,30.60
2023-05-22T00:20:07.714Z,32.03
2023-05-22T00:22:36.385Z,30.20
2023-05-22T00:25:04.983Z,28.83
2023-05-22T00:27:33.129Z,29.20
2023-05-22T00:30:01.719Z,30.03
2023-05-22T00:32:31.342Z,30.40
2023-05-22T00:34:59.417Z,28.83
2023-05-22T00:37:27.416Z,29.30
2023-05-22T00:39:55.745Z,29.80
2023-05-22T00:42:24.310Z,29.50
2023-05-22T00:44:52.374Z,29.27
2023-05-22T00:47:21.179Z,30.30
2023-05-22T00:49:50.856Z,29.37
2023-05-22T00:52:19.048Z,28.37
2023-05-22T00:54:47.085Z,27.67
2023-05-22T00:57:15.311Z,29.90
2023-05-22T00:59:44.063Z,28.93
2023-05-22T01:02:13.491Z,27.80
2023-05-22T01:04:42.671Z,28.03
2023-05-22T01:07:12.674Z,26.60
2023-05-22T01:09:40.681Z,27.63
2023-05-22T01:12:18.119Z,25.87
2023-05-22T01:14:56.723Z,27.00
2023-05-22T01:17:34.694Z,27.60
2023-05-22T01:20:10.279Z,26.70
2023-05-22T01:23:05.867Z,24.43
2023-05-22T01:25:57.743Z,25.17
2023-05-22T01:28:47.401Z,23.50
2023-05-22T01:31:18.686Z,21.77
2023-05-22T01:33:49.183Z,21.13
2023-05-22T01:36:20.271Z,18.90
2023-05-22T01:38:49.549Z,19.30
2023-05-22T01:41:18.089Z,20.53
2023-05-22T01:43:47.159Z,20.70
2023-05-22T01:46:16.559Z,20.43
2023-05-22T01:48:44.844Z,21.47
2023-05-22T01:51:20.255Z,19.57
2023-05-22T01:53:55.177Z,22.20
2023-05-22T01:56:30.715Z,20.53
2023-05-22T01:59:04.567Z,22.50
2023-05-22T02:01:38.872Z,20.80
2023-05-22T02:04:07.488Z,19.30
2023-05-22T02:06:36.983Z,19.73
2023-05-22T02:09:06.235Z,21.23
2023-05-22T02:11:36.426Z,20.90
2023-05-22T02:14:05.115Z,21.07
2023-05-22T02:16:35.197Z,20.87
2023-05-22T02:19:06.494Z,20.43
2023-05-22T02:21:36.105Z,20.00
2023-05-22T02:24:04.399Z,20.53
2023-05-22T02:26:32.523Z,22.27
2023-05-22T02:29:01.689Z,21.80
2023-05-22T02:31:29.764Z,21.87
2023-05-22T02:33:59.848Z,22.43
2023-05-22T02:36:30.916Z,21.73
2023-05-22T02:38:59.249Z,21.00
2023-05-22T02:41:27.342Z,20.10
2023-05-22T02:43:56.203Z,20.33
2023-05-22T02:46:24.401Z,20.90
2023-05-22T02:48:52.427Z,19.80
2023-05-22T02:51:21.849Z,20.73
2023-05-22T02:53:50.138Z,21.67
2023-05-22T02:56:18.842Z,21.87
2023-05-22T02:58:46.881Z,21.50
2023-05-22T03:01:15.528Z,21.83
2023-05-22T03:03:43.795Z,20.27
2023-05-22T03:06:12.129Z,20.50
2023-05-22T03:08:43.523Z,22.27
2023-05-22T03:11:11.626Z,22.13
2023-05-22T03:13:39.644Z,23.60
2023-05-22T03:16:08.430Z,21.80
2023-05-22T03:18:40.551Z,21.07
2023-05-22T03:21:08.548Z,23.60
2023-05-22T03:23:36.571Z,23.60
2023-05-22T03:26:06.151Z,22.50
2023-05-22T03:28:37.506Z,23.63
2023-05-22T03:31:05.830Z,23.87
2023-05-22T03:33:42.790Z,22.87
2023-05-22T03:36:11.065Z,23.23
2023-05-22T03:38:39.244Z,23.80
2023-05-22T03:41:09.042Z,24.17
2023-05-22T03:43:37.135Z,24.50
2023-05-22T03:46:05.987Z,25.20
2023-05-22T03:48:34.976Z,26.33
2023-05-22T03:51:03.087Z,28.77
2023-05-22T03:53:31.141Z,31.20
2023-05-22T03:56:00.328Z,29.60
2023-05-22T03:58:29.687Z,29.77
2023-05-22T04:00:58.590Z,28.33
2023-05-22T04:03:27.803Z,32.43
2023-05-22T04:05:56.848Z,31.13
2023-05-22T04:08:25.115Z,29.60
2023-05-22T04:10:54.507Z,33.30
2023-05-22T04:13:22.576Z,33.63
2023-05-22T04:15:53.566Z,32.40
2023-05-22T04:18:22.099Z,33.83
2023-05-22T04:20:51.853Z,33.87
2023-05-22T04:23:20.257Z,36.23
2023-05-22T04:25:48.868Z,33.70
2023-05-22T04:28:18.178Z,31.77
2023-05-22T04:30:47.847Z,30.83
2023-05-22T04:33:18.169Z,30.80
2023-05-22T04:35:46.321Z,27.87
2023-05-22T04:38:14.322Z,26.10
2023-05-22T04:40:43.412Z,24.70
2023-05-22T04:43:11.639Z,24.90
2023-05-22T04:45:42.197Z,25.57
2023-05-22T04:48:11.965Z,24.93
2023-05-22T04:50:41.538Z,24.87
2023-05-22T04:53:09.959Z,24.93
2023-05-22T04:55:38.083Z,23.27
2023-05-22T04:58:06.809Z,24.20
2023-05-22T05:00:35.299Z,23.63
2023-05-22T05:03:03.679Z,24.73
2023-05-22T05:05:32.134Z,26.10
2023-05-22T05:08:02.471Z,25.10
2023-05-22T05:10:30.941Z,27.10
2023-05-22T05:13:00.230Z,26.57
2023-05-22T05:15:29.448Z,26.13
2023-05-22T05:17:57.654Z,27.37
2023-05-22T05:20:27.445Z,25.50
2023-05-22T05:22:56.303Z,27.30
2023-05-22T05:25:25.992Z,28.50
2023-05-22T05:27:54.193Z,28.97
2023-05-22T05:30:24.145Z,33.17
2023-05-22T05:33:04.430Z,30.60
2023-05-22T05:35:42.170Z,30.63
2023-05-22T05:38:12.322Z,32.60
2023-05-22T05:40:43.805Z,33.83
2023-05-22T05:43:15.086Z,34.00
2023-05-22T05:45:43.935Z,33.27
2023-05-22T05:48:12.890Z,35.60
2023-05-22T05:50:44.622Z,36.60
2023-05-22T05:53:12.984Z,37.03
2023-05-22T05:55:47.213Z,38.07
2023-05-22T05:58:15.885Z,38.10
2023-05-22T06:00:55.406Z,37.67
2023-05-22T06:03:25.594Z,39.13
2023-05-22T06:06:12.007Z,37.47
2023-05-22T06:08:58.682Z,41.17
2023-05-22T06:11:34.243Z,40.30
2023-05-22T06:14:07.031Z,38.77
2023-05-22T06:16:35.262Z,40.73
2023-05-22T06:19:04.547Z,41.27
2023-05-22T06:21:33.164Z,45.83
2023-05-22T06:24:01.529Z,48.93
2023-05-22T06:26:30.370Z,49.63
2023-05-22T06:28:59.776Z,50.40
2023-05-22T06:31:29.103Z,49.77
2023-05-22T06:33:59.335Z,49.30
2023-05-22T06:36:27.546Z,50.57
2023-05-22T06:38:56.589Z,50.53
2023-05-22T06:41:44.897Z,52.97
2023-05-22T06:44:16.111Z,55.03
2023-05-22T06:46:44.161Z,56.70
2023-05-22T06:49:19.593Z,56.83
2023-05-22T06:51:50.786Z,54.40
2023-05-22T06:54:19.680Z,57.57
2023-05-22T06:56:49.897Z,56.00
2023-05-22T06:59:21.686Z,57.50
2023-05-22T07:02:07.823Z,58.70
2023-05-22T07:04:54.532Z,58.30
2023-05-22T07:07:30.121Z,59.67
2023-05-22T07:09:58.601Z,59.30
2023-05-22T07:12:27.955Z,59.40
2023-05-22T07:15:00.011Z,61.97
2023-05-22T07:17:28.472Z,78.50
2023-05-22T07:19:58.032Z,58.53
2023-05-22T07:22:27.062Z,60.40
2023-05-22T07:24:56.490Z,57.07
2023-05-22T07:27:28.995Z,61.40
2023-05-22T07:29:58.377Z,56.43
2023-05-22T07:32:27.076Z,59.40
2023-05-22T07:34:55.295Z,60.03
2023-05-22T07:37:23.483Z,58.47
2023-05-22T07:39:52.359Z,62.17
2023-05-22T07:42:21.727Z,59.13
2023-05-22T07:44:53.828Z,58.17
2023-05-22T07:47:24.277Z,61.03
2023-05-22T07:49:52.913Z,61.33
2023-05-22T07:52:21.710Z,60.40
2023-05-22T07:54:49.885Z,65.10
2023-05-22T07:57:19.340Z,62.57
2023-05-22T07:59:48.853Z,62.20
2023-05-22T08:02:16.950Z,59.07
2023-05-22T08:04:46.416Z,63.07
2023-05-22T08:07:14.537Z,61.67
2023-05-22T08:09:46.047Z,64.53
2023-05-22T08:12:14.146Z,60.30
2023-05-22T08:14:42.222Z,61.10
2023-05-22T08:17:10.335Z,64.27
2023-05-22T08:19:38.720Z,64.17
2023-05-22T08:22:08.483Z,63.50
2023-05-22T08:24:36.624Z,62.10
2023-05-22T08:27:06.463Z,62.87
2023-05-22T08:29:34.813Z,66.00
2023-05-22T08:32:02.944Z,67.30
2023-05-22T08:34:32.479Z,67.63
2023-05-22T08:37:00.595Z,67.50
2023-05-22T08:39:30.786Z,66.53
2023-05-22T08:41:59.320Z,69.83
2023-05-22T08:44:27.338Z,69.50
2023-05-22T08:46:56.665Z,70.10
2023-05-22T08:49:25.928Z,66.90
2023-05-22T08:51:57.467Z,64.87
2023-05-22T08:54:27.427Z,64.00
2023-05-22T08:56:57.619Z,66.60
2023-05-22T08:59:26.457Z,65.30
2023-05-22T09:01:55.162Z,55.30
2023-05-22T09:04:24.188Z,56.60
2023-05-22T09:06:54.249Z,52.03
2023-05-22T09:09:22.362Z,52.20
2023-05-22T09:11:51.690Z,52.67
2023-05-22T09:14:21.060Z,56.20
2023-05-22T09:16:51.195Z,57.57
2023-05-22T09:19:19.576Z,58.37
2023-05-22T09:21:48.205Z,48.97
2023-05-22T09:24:16.290Z,45.60
2023-05-22T09:26:44.316Z,43.33
2023-05-22T09:29:12.320Z,42.10
2023-05-22T09:31:44.624Z,42.80
2023-05-22T09:34:15.525Z,43.60
2023-05-22T09:36:43.784Z,42.57
2023-05-22T09:39:11.932Z,39.93
2023-05-22T09:41:41.051Z,38.17
2023-05-22T09:44:13.996Z,40.20
2023-05-22T09:46:46.076Z,37.33
2023-05-22T09:49:16.544Z,38.13
2023-05-22T09:51:48.026Z,36.43
2023-05-22T09:54:17.523Z,36.23
2023-05-22T09:56:47.927Z,35.93
2023-05-22T09:59:19.229Z,33.90
2023-05-22T10:01:49.948Z,37.60
2023-05-22T10:04:19.791Z,40.60
2023-05-22T10:06:51.751Z,40.07
2023-05-22T10:09:22.475Z,38.00
2023-05-22T10:11:54.484Z,37.73
2023-05-22T10:14:23.466Z,41.50
2023-05-22T10:16:53.795Z,37.90
2023-05-22T10:19:27.151Z,37.80
2023-05-22T10:21:57.367Z,37.77
2023-05-22T10:24:26.134Z,37.77
2023-05-22T10:26:55.354Z,37.63
2023-05-22T10:29:26.755Z,34.70
2023-05-22T10:32:01.518Z,36.00
2023-05-22T10:34:43.524Z,34.10
2023-05-22T10:37:23.043Z,38.33
2023-05-22T10:40:02.296Z,35.20
2023-05-22T10:42:31.908Z,34.07
2023-05-22T10:45:02.153Z,35.17
2023-05-22T10:47:34.783Z,37.00
2023-05-22T10:50:08.946Z,35.70
2023-05-22T10:52:37.220Z,36.90
2023-05-22T10:55:08.620Z,36.90
2023-05-22T10:57:38.952Z,38.70
2023-05-22T11:00:15.938Z,36.57
2023-05-22T11:02:49.680Z,36.00
2023-05-22T11:05:36.371Z,36.00
2023-05-22T11:08:26.254Z,36.97
2023-05-22T11:10:55.877Z,34.60
2023-05-22T11:13:29.140Z,36.37
2023-05-22T11:15:58.236Z,36.37
2023-05-22T11:18:30.085Z,35.70
2023-05-22T11:21:01.242Z,36.80
2023-05-22T11:23:29.677Z,34.97
2023-05-22T11:25:57.679Z,39.70
2023-05-22T11:28:26.073Z,39.53
2023-05-22T11:30:55.539Z,41.43
2023-05-22T11:33:25.105Z,40.90
2023-05-22T11:35:56.956Z,41.07
2023-05-22T11:38:27.130Z,41.20
2023-05-22T11:40:55.172Z,41.63
2023-05-22T11:43:31.534Z,41.73
2023-05-22T11:46:02.729Z,43.40
2023-05-22T11:48:30.930Z,42.70
2023-05-22T11:51:00.505Z,41.70
2023-05-22T11:53:28.739Z,40.87
2023-05-22T11:55:56.797Z,44.00
2023-05-22T11:58:28.754Z,39.20
2023-05-22T12:01:00.173Z,42.97
2023-05-22T12:03:28.412Z,41.53
2023-05-22T12:05:57.513Z,41.77
2023-05-22T12:08:27.361Z,37.47
2023-05-22T12:10:55.852Z,39.10
2023-05-22T12:13:25.400Z,38.40
2023-05-22T12:15:56.169Z,38.13
2023-05-22T12:18:24.368Z,36.83
2023-05-22T12:20:56.684Z,39.30
2023-05-22T12:23:27.373Z,36.77
2023-05-22T12:26:00.188Z,36.03
2023-05-22T12:28:28.418Z,39.40
2023-05-22T12:30:57.079Z,38.70
2023-05-22T12:33:29.157Z,33.80
2023-05-22T12:35:58.555Z,35.20
2023-05-22T12:38:30.548Z,39.53
2023-05-22T12:41:00.332Z,35.40
2023-05-22T12:43:28.415Z,35.80
2023-05-22T12:45:56.577Z,32.03
2023-05-22T12:48:24.638Z,33.40
2023-05-22T12:50:52.769Z,35.50
2023-05-22T12:53:20.981Z,33.40
2023-05-22T12:55:50.483Z,33.97
2023-05-22T12:58:18.618Z,36.70
2023-05-22T13:00:46.680Z,35.27
2023-05-22T13:03:14.931Z,35.50
2023-05-22T13:05:43.293Z,36.90
2023-05-22T13:08:11.427Z,35.80
2023-05-22T13:10:39.522Z,33.77
2023-05-22T13:13:09.007Z,32.17
2023-05-22T13:15:37.124Z,34.33
2023-05-22T13:18:05.339Z,33.60
2023-05-22T13:20:34.153Z,34.93
2023-05-22T13:23:02.204Z,33.47
2023-05-22T13:25:30.256Z,31.00
2023-05-22T13:27:59.545Z,34.83
2023-05-22T13:30:29.468Z,32.13
2023-05-22T13:32:58.208Z,33.07
2023-05-22T13:35:26.372Z,32.57
2023-05-22T13:37:54.529Z,37.00
2023-05-22T13:40:22.642Z,45.57
2023-05-22T13:42:52.723Z,74.03
2023-05-22T13:45:20.972Z,29.27
2023-05-22T13:47:50.705Z,30.73
2023-05-22T13:50:18.919Z,31.53
2023-05-22T13:52:46.987Z,30.83
2023-05-22T13:55:15.110Z,30.07
2023-05-22T13:57:43.167Z,29.77
2023-05-22T14:00:12.352Z,30.20
2023-05-22T14:02:40.588Z,31.67
2023-05-22T14:05:10.632Z,31.63
2023-05-22T14:07:38.761Z,32.03
2023-05-22T14:10:08.157Z,32.40
2023-05-22T14:12:36.258Z,34.17
2023-05-22T14:15:04.285Z,34.87
2023-05-22T14:17:32.306Z,33.30
2023-05-22T14:20:00.414Z,35.50
2023-05-22T14:22:30.625Z,32.60
2023-05-22T14:25:00.751Z,31.97
2023-05-22T14:27:28.848Z,32.43
2023-05-22T14:29:56.824Z,32.73
2023-05-22T14:32:24.839Z,33.43
2023-05-22T14:34:53.614Z,33.23
2023-05-22T14:37:21.792Z,31.37
2023-05-22T14:39:51.156Z,31.77
2023-05-22T14:42:19.152Z,32.73
2023-05-22T14:44:47.120Z,31.77
2023-05-22T14:47:15.192Z,33.10
2023-05-22T14:49:43.176Z,33.03
2023-05-22T14:52:11.216Z,33.17
2023-05-22T14:54:39.260Z,32.63
2023-05-22T14:57:08.809Z,34.70
2023-05-22T14:59:36.861Z,35.17
2023-05-22T15:02:04.947Z,35.80
2023-05-22T15:04:33.022Z,34.33
2023-05-22T15:07:01.614Z,33.83
2023-05-22T15:09:30.500Z,32.20
2023-05-22T15:11:58.507Z,33.60
2023-05-22T15:14:27.894Z,34.37
2023-05-22T15:16:55.894Z,34.83
2023-05-22T15:19:23.962Z,33.40
2023-05-22T15:21:52.019Z,32.60
2023-05-22T15:24:20.040Z,33.43
2023-05-22T15:26:48.079Z,35.87
2023-05-22T15:29:16.221Z,37.00
2023-05-22T15:31:45.763Z,35.27
2023-05-22T15:34:13.932Z,38.87
2023-05-22T15:36:41.937Z,35.40
2023-05-22T15:39:09.966Z,38.33
2023-05-22T15:41:38.041Z,38.70
2023-05-22T15:44:06.181Z,40.93
2023-05-22T15:46:34.253Z,41.23
2023-05-22T15:49:04.166Z,40.20
2023-05-22T15:51:32.720Z,40.90
2023-05-22T15:54:00.803Z,40.87
2023-05-22T15:56:28.847Z,39.53
2023-05-22T15:58:56.850Z,40.90
2023-05-22T16:01:24.936Z,41.27
2023-05-22T16:03:53.058Z,43.60
2023-05-22T16:06:23.291Z,41.87
2023-05-22T16:08:51.368Z,42.93
2023-05-22T16:11:19.476Z,42.83
2023-05-22T16:13:47.669Z,43.27
2023-05-22T16:16:17.307Z,43.10
2023-05-22T16:18:45.456Z,41.97
2023-05-22T16:21:13.528Z,43.47
2023-05-22T16:23:42.936Z,43.83
2023-05-22T16:26:10.966Z,42.97
2023-05-22T16:28:39.045Z,45.20
2023-05-22T16:31:07.194Z,46.20
2023-05-22T16:33:37.320Z,44.00
2023-05-22T16:36:06.569Z,42.27
2023-05-22T16:38:34.623Z,43.80
2023-05-22T16:41:04.003Z,44.47
2023-05-22T16:43:32.033Z,43.60
2023-05-22T16:46:00.301Z,43.60
2023-05-22T16:48:28.458Z,42.20
2023-05-22T16:50:56.502Z,45.67
2023-05-22T16:53:24.503Z,43.13
2023-05-22T16:55:52.578Z,44.37
2023-05-22T16:58:22.082Z,45.73
2023-05-22T17:00:50.310Z,46.90
2023-05-22T17:03:18.537Z,44.87
2023-05-22T17:05:47.571Z,46.90
2023-05-22T17:08:15.775Z,47.57
2023-05-22T17:10:43.881Z,53.43
2023-05-22T17:13:19.563Z,47.17
2023-05-22T17:15:49.421Z,47.93
2023-05-22T17:18:19.654Z,44.73
2023-05-22T17:20:47.873Z,59.60
2023-05-22T17:23:16.065Z,48.00
2023-05-22T17:25:46.484Z,45.10
2023-05-22T17:28:15.192Z,44.03
2023-05-22T17:30:44.090Z,43.00
2023-05-22T17:33:13.984Z,41.60
2023-05-22T17:35:42.981Z,45.30
2023-05-22T17:38:11.169Z,42.93
2023-05-22T17:40:45.558Z,42.97
2023-05-22T17:43:14.457Z,41.60
2023-05-22T17:45:44.376Z,41.50
2023-05-22T17:48:15.826Z,43.17
2023-05-22T17:50:43.959Z,39.80
2023-05-22T17:53:13.403Z,41.47
2023-05-22T17:55:41.479Z,40.87
2023-05-22T17:58:09.633Z,93.13
2023-05-22T18:00:37.795Z,72.77
2023-05-22T18:03:06.031Z,41.17
2023-05-22T18:05:35.643Z,37.80
2023-05-22T18:08:03.743Z,36.53
2023-05-22T18:10:32.070Z,37.27
2023-05-22T18:13:00.133Z,36.50
2023-05-22T18:15:28.206Z,35.70
2023-05-22T18:17:56.243Z,35.53
2023-05-22T18:20:24.352Z,36.07
2023-05-22T18:22:53.851Z,35.30
2023-05-22T18:25:21.919Z,32.77
2023-05-22T18:27:49.980Z,31.00
2023-05-22T18:30:18.737Z,27.10
2023-05-22T18:32:46.849Z,17.37
2023-05-22T18:35:15.085Z,15.70
2023-05-22T18:37:43.184Z,14.70
2023-05-22T18:40:13.885Z,13.63
2023-05-22T18:42:43.244Z,11.60
2023-05-22T18:45:12.338Z,15.67
2023-05-22T18:47:40.440Z,12.43
2023-05-22T18:50:09.355Z,11.03
2023-05-22T18:52:37.973Z,10.80
2023-05-22T18:55:06.899Z,11.60
2023-05-22T18:57:36.293Z,10.70
2023-05-22T19:00:04.655Z,10.90
2023-05-22T19:02:32.743Z,11.30
2023-05-22T19:05:00.986Z,11.90
2023-05-22T19:07:29.221Z,11.47
2023-05-22T19:09:57.349Z,11.50
2023-05-22T19:12:28.298Z,11.73
2023-05-22T19:14:58.352Z,11.30
2023-05-22T19:17:26.539Z,11.03
2023-05-22T19:19:54.804Z,11.50
2023-05-22T19:22:24.143Z,11.47
2023-05-22T19:24:52.229Z,17.77
2023-05-22T19:27:20.319Z,10.60
2023-05-22T19:29:48.505Z,10.80
2023-05-22T19:32:17.909Z,11.80
2023-05-22T19:34:46.420Z,12.50
2023-05-22T19:37:14.562Z,12.53
2023-05-22T19:39:42.609Z,13.40
2023-05-22T19:42:11.239Z,12.90
2023-05-22T19:44:39.414Z,11.30
2023-05-22T19:47:07.830Z,11.63
2023-05-22T19:49:37.365Z,11.53
2023-05-22T19:52:05.777Z,11.20
2023-05-22T19:54:33.942Z,11.33
2023-05-22T19:57:02.934Z,21.50
2023-05-22T19:59:30.997Z,24.97
2023-05-22T20:01:59.134Z,14.90
2023-05-22T20:04:27.343Z,10.67
2023-05-22T20:06:58.599Z,10.37
2023-05-22T20:09:27.498Z,10.03
2023-05-22T20:11:55.526Z,11.37
2023-05-22T20:14:23.594Z,10.90
2023-05-22T20:16:51.993Z,11.67
2023-05-22T20:19:20.171Z,12.33
2023-05-22T20:21:49.849Z,17.60
2023-05-22T20:24:20.984Z,13.60
2023-05-22T20:26:49.394Z,13.50
2023-05-22T20:29:17.715Z,13.87
2023-05-22T20:31:46.756Z,13.80
2023-05-22T20:34:15.507Z,15.17
2023-05-22T20:36:46.532Z,14.10
2023-05-22T20:39:14.813Z,49.73
2023-05-22T20:41:44.213Z,41.13
2023-05-22T20:44:12.292Z,21.40
2023-05-22T20:46:40.332Z,12.90
2023-05-22T20:49:08.846Z,13.70
2023-05-22T20:51:36.921Z,13.60
2023-05-22T20:54:05.260Z,14.50
2023-05-22T20:56:33.410Z,13.87
2023-05-22T20:59:02.798Z,15.33
2023-05-22T21:01:31.130Z,15.00
2023-05-22T21:03:59.404Z,15.47
2023-05-22T21:06:27.588Z,12.57
2023-05-22T21:08:59.702Z,12.40
2023-05-22T21:11:27.766Z,15.83
2023-05-22T21:13:55.968Z,15.73
2023-05-22T21:16:25.586Z,13.50
2023-05-22T21:18:53.869Z,11.67
2023-05-22T21:21:21.927Z,11.90
2023-05-22T21:23:50.764Z,10.90
2023-05-22T21:26:22.196Z,11.13
2023-05-22T21:28:50.415Z,9.77
2023-05-22T21:31:18.552Z,10.63
2023-05-22T21:33:48.004Z,10.70
2023-05-22T21:36:16.050Z,10.63
2023-05-22T21:38:44.077Z,10.87
2023-05-22T21:41:12.542Z,9.30
2023-05-22T21:43:40.657Z,8.80
2023-05-22T21:46:08.935Z,8.80
2023-05-22T21:48:36.979Z,9.57
2023-05-22T21:51:06.787Z,9.70
2023-05-22T21:53:34.805Z,9.90
2023-05-22T21:56:02.880Z,9.10
2023-05-22T21:58:30.975Z,11.37
2023-05-22T22:00:59.008Z,12.70
2023-05-22T22:03:27.128Z,13.33
2023-05-22T22:05:55.281Z,13.87
2023-05-22T22:08:27.093Z,13.77
2023-05-22T22:10:55.325Z,14.03
2023-05-22T22:13:23.361Z,12.80
2023-05-22T22:15:51.636Z,12.63
2023-05-22T22:18:19.656Z,11.27
2023-05-22T22:23:17.996Z,10.10
2023-05-22T22:25:47.545Z,9.50
2023-05-22T22:28:15.882Z,8.90
2023-05-22T22:30:43.918Z,8.63
2023-05-22T22:33:12.822Z,9.37
2023-05-22T22:35:42.196Z,9.17
2023-05-22T22:38:10.525Z,12.43
2023-05-22T22:40:38.703Z,8.00
2023-05-22T22:43:08.255Z,8.53
2023-05-22T22:45:36.356Z,7.97
2023-05-22T22:48:05.793Z,7.90
2023-05-22T22:50:33.900Z,7.83
2023-05-22T22:53:01.899Z,8.10
2023-05-22T22:55:30.183Z,7.87
2023-05-22T22:57:59.519Z,7.90
2023-05-22T23:00:29.115Z,7.97
2023-05-22T23:02:57.231Z,7.40
2023-05-22T23:05:25.369Z,7.60
2023-05-22T23:07:53.433Z,7.27
2023-05-22T23:10:22.048Z,7.90
2023-05-22T23:12:50.228Z,7.70
2023-05-22T23:15:18.410Z,7.80
2023-05-22T23:17:50.165Z,7.40
2023-05-22T23:20:19.766Z,40.80
2023-05-22T23:22:47.829Z,39.50
2023-05-22T23:25:15.829Z,8.63
2023-05-22T23:27:44.021Z,8.07
2023-05-22T23:30:12.862Z,7.60
2023-05-22T23:32:40.912Z,8.50
2023-05-22T23:35:11.173Z,8.60
2023-05-22T23:37:39.186Z,8.27
2023-05-22T23:40:08.825Z,8.73
2023-05-22T23:42:37.436Z,8.20
2023-05-22T23:45:06.115Z,7.70
2023-05-22T23:47:34.191Z,8.73
2023-05-22T23:50:02.256Z,9.20
2023-05-22T23:52:32.048Z,9.93
2023-05-22T23:55:00.687Z,9.73
2023-05-22T23:57:28.801Z,9.73
2023-05-22T23:59:56.811Z,9.40
